KAIA/AIA METAR and TAF weather

Enter ICAO airport designator
Station Type Date Time Source
KAIA METAR 2018/04/23 10:53 UTC NOAA

KAIA 231053Z AUTO 14004KT 10SM CLR 01/01 A3010 RMK AO2 SLP189 T00110006 $


Station Type Date Time Source
KAIA Decoded METAR 2018/04/23 10:53 UTC NOAA

ALLIANCE MUNICIPAL AIRPORT, NE, United States (KAIA) 42-03N 102-48W 1196M
Apr 23, 2018 - 06:53 AM EDT / 2018.04.23 1053 UTC
Wind: from the SE (140 degrees) at 5 MPH (4 KT):0
Visibility: 10 mile(s):0
Sky conditions: clear
Temperature: 34.0 F (1.1 C)
Windchill: 30 F (-1 C):1
Dew Point: 33.1 F (0.6 C)
Relative Humidity: 96%
Pressure (altimeter): 30.1 in. Hg (1019 hPa)
ob: KAIA 231053Z AUTO 14004KT 10SM CLR 01/01 A3010 RMK AO2 SLP189 T00110006
cycle: 11

Station Type Date Time Source
KAIA TAF 2018/04/23 06:36 UTC NOAA

TAF KAIA 230533Z 2306/2406 17008KT P6SM SCT250
FM231500 17015G25KT P6SM SCT100
FM232300 25015G25KT P6SM VCSH BKN050 OVC100
FM240200 33018G26KT 5SM -RA BKN025 OVC050


Example: see airport list